Terminal Aerodrome Forecast
Issued by NWS

Home | Current Version | Previous Version | Text Only | Print | Product List | Glossary On
Versions: 1 2 3 4 5 6 7 8 9 10 11 12 13 14 15 16 17 18 19 20 21 22
000
FTUS41 KBGM 020200 AAA
TAFITH
TAF AMD
KITH 020206Z 0202/0224 20006KT P6SM OVC040
      TEMPO 0202/0205 4SM -SN OVC025
     FM020500 30008KT P6SM -SHSN SCT008 OVC015
     FM021400 30015G25KT P6SM -SHSN SCT025 BKN035=

USA.gov is the U.S. government's official web portal to all federal, state and local government web resources and services.